sensor_id;sensor_type;location;lat;lon;timestamp;P1;durP1;ratioP1;P2;durP2;ratioP2
43070;SDS011;36278;47.952;21.714;2022-10-18T00:02:06;52.33;;;38.17;;
43070;SDS011;36278;47.952;21.714;2022-10-18T00:04:31;55.40;;;39.50;;
43070;SDS011;36278;47.952;21.714;2022-10-18T00:06:57;54.43;;;38.87;;
43070;SDS011;36278;47.952;21.714;2022-10-18T00:09:23;51.60;;;38.27;;
43070;SDS011;36278;47.952;21.714;2022-10-18T00:11:49;59.50;;;40.20;;
43070;SDS011;36278;47.952;21.714;2022-10-18T00:14:15;56.93;;;39.50;;
43070;SDS011;36278;47.952;21.714;2022-10-18T00:16:41;52.50;;;38.90;;
43070;SDS011;36278;47.952;21.714;2022-10-18T00:19:06;53.00;;;37.57;;
43070;SDS011;36278;47.952;21.714;2022-10-18T00:21:32;50.07;;;37.43;;
43070;SDS011;36278;47.952;21.714;2022-10-18T00:23:57;55.50;;;39.00;;
43070;SDS011;36278;47.952;21.714;2022-10-18T00:26:24;53.37;;;38.17;;
43070;SDS011;36278;47.952;21.714;2022-10-18T00:28:52;48.30;;;37.07;;
43070;SDS011;36278;47.952;21.714;2022-10-18T00:31:26;53.70;;;38.17;;
43070;SDS011;36278;47.952;21.714;2022-10-18T00:33:54;55.20;;;38.43;;
43070;SDS011;36278;47.952;21.714;2022-10-18T00:36:22;49.97;;;36.87;;
43070;SDS011;36278;47.952;21.714;2022-10-18T00:38:47;51.13;;;39.10;;
43070;SDS011;36278;47.952;21.714;2022-10-18T00:41:32;49.83;;;37.50;;
43070;SDS011;36278;47.952;21.714;2022-10-18T00:44:06;52.80;;;37.73;;
43070;SDS011;36278;47.952;21.714;2022-10-18T00:46:36;47.73;;;36.50;;
43070;SDS011;36278;47.952;21.714;2022-10-18T00:49:05;48.37;;;37.10;;
43070;SDS011;36278;47.952;21.714;2022-10-18T00:51:50;54.70;;;36.43;;
43070;SDS011;36278;47.952;21.714;2022-10-18T00:54:22;53.97;;;37.70;;
43070;SDS011;36278;47.952;21.714;2022-10-18T00:56:49;49.40;;;38.87;;
43070;SDS011;36278;47.952;21.714;2022-10-18T00:59:15;50.63;;;37.43;;
43070;SDS011;36278;47.952;21.714;2022-10-18T01:01:42;49.90;;;37.63;;
43070;SDS011;36278;47.952;21.714;2022-10-18T01:04:09;52.90;;;37.33;;
43070;SDS011;36278;47.952;21.714;2022-10-18T01:06:40;44.77;;;34.43;;
43070;SDS011;36278;47.952;21.714;2022-10-18T01:14:45;52.30;;;36.67;;
43070;SDS011;36278;47.952;21.714;2022-10-18T01:17:18;49.03;;;36.93;;
43070;SDS011;36278;47.952;21.714;2022-10-18T01:25:27;48.17;;;37.13;;
43070;SDS011;36278;47.952;21.714;2022-10-18T01:36:06;46.73;;;34.70;;
43070;SDS011;36278;47.952;21.714;2022-10-18T01:38:39;48.63;;;36.05;;
43070;SDS011;36278;47.952;21.714;2022-10-18T01:41:06;49.73;;;36.47;;
43070;SDS011;36278;47.952;21.714;2022-10-18T01:43:35;45.17;;;34.90;;
43070;SDS011;36278;47.952;21.714;2022-10-18T01:46:03;45.70;;;34.47;;
43070;SDS011;36278;47.952;21.714;2022-10-18T01:48:29;50.80;;;35.63;;
43070;SDS011;36278;47.952;21.714;2022-10-18T01:50:55;49.57;;;34.93;;
43070;SDS011;36278;47.952;21.714;2022-10-18T01:53:26;44.97;;;35.23;;
43070;SDS011;36278;47.952;21.714;2022-10-18T02:04:48;44.30;;;35.27;;
43070;SDS011;36278;47.952;21.714;2022-10-18T02:07:30;44.70;;;33.20;;
43070;SDS011;36278;47.952;21.714;2022-10-18T02:12:32;49.63;;;34.03;;
43070;SDS011;36278;47.952;21.714;2022-10-18T02:14:58;48.53;;;35.33;;
43070;SDS011;36278;47.952;21.714;2022-10-18T02:17:26;45.43;;;33.87;;
43070;SDS011;36278;47.952;21.714;2022-10-18T02:19:54;46.67;;;34.90;;
43070;SDS011;36278;47.952;21.714;2022-10-18T02:22:21;51.20;;;35.57;;
43070;SDS011;36278;47.952;21.714;2022-10-18T02:24:50;51.03;;;35.53;;
43070;SDS011;36278;47.952;21.714;2022-10-18T02:27:18;46.07;;;35.10;;
43070;SDS011;36278;47.952;21.714;2022-10-18T02:29:44;41.40;;;32.53;;
43070;SDS011;36278;47.952;21.714;2022-10-18T02:32:16;50.43;;;33.40;;
43070;SDS011;36278;47.952;21.714;2022-10-18T02:34:49;48.00;;;33.87;;
43070;SDS011;36278;47.952;21.714;2022-10-18T02:37:22;39.87;;;32.43;;
43070;SDS011;36278;47.952;21.714;2022-10-18T02:39:52;47.40;;;32.83;;
43070;SDS011;36278;47.952;21.714;2022-10-18T02:42:17;44.70;;;32.93;;
43070;SDS011;36278;47.952;21.714;2022-10-18T02:44:43;39.23;;;31.83;;
43070;SDS011;36278;47.952;21.714;2022-10-18T02:47:09;42.50;;;31.33;;
43070;SDS011;36278;47.952;21.714;2022-10-18T02:49:35;38.67;;;30.53;;
43070;SDS011;36278;47.952;21.714;2022-10-18T02:52:01;35.13;;;29.03;;
43070;SDS011;36278;47.952;21.714;2022-10-18T02:54:26;41.20;;;29.67;;
43070;SDS011;36278;47.952;21.714;2022-10-18T02:56:52;39.53;;;28.40;;
43070;SDS011;36278;47.952;21.714;2022-10-18T02:59:17;38.90;;;29.37;;
43070;SDS011;36278;47.952;21.714;2022-10-18T03:01:42;39.13;;;28.77;;
43070;SDS011;36278;47.952;21.714;2022-10-18T03:04:08;38.90;;;28.90;;
43070;SDS011;36278;47.952;21.714;2022-10-18T03:06:34;35.77;;;28.97;;
43070;SDS011;36278;47.952;21.714;2022-10-18T03:09:02;41.23;;;30.47;;
43070;SDS011;36278;47.952;21.714;2022-10-18T03:11:29;39.57;;;28.13;;
43070;SDS011;36278;47.952;21.714;2022-10-18T03:13:55;40.30;;;29.10;;
43070;SDS011;36278;47.952;21.714;2022-10-18T03:16:20;42.20;;;28.77;;
43070;SDS011;36278;47.952;21.714;2022-10-18T03:18:45;41.87;;;29.87;;
43070;SDS011;36278;47.952;21.714;2022-10-18T03:21:11;39.07;;;30.63;;
43070;SDS011;36278;47.952;21.714;2022-10-18T03:23:36;36.27;;;28.93;;
43070;SDS011;36278;47.952;21.714;2022-10-18T03:26:02;38.87;;;29.30;;
43070;SDS011;36278;47.952;21.714;2022-10-18T03:28:28;44.73;;;31.70;;
43070;SDS011;36278;47.952;21.714;2022-10-18T03:30:58;38.07;;;30.63;;
43070;SDS011;36278;47.952;21.714;2022-10-18T03:33:28;41.87;;;30.53;;
43070;SDS011;36278;47.952;21.714;2022-10-18T03:35:54;46.20;;;31.73;;
43070;SDS011;36278;47.952;21.714;2022-10-18T03:38:20;42.73;;;31.07;;
43070;SDS011;36278;47.952;21.714;2022-10-18T03:40:45;39.23;;;31.63;;
43070;SDS011;36278;47.952;21.714;2022-10-18T03:43:11;39.03;;;30.93;;
43070;SDS011;36278;47.952;21.714;2022-10-18T03:45:36;44.10;;;32.20;;
43070;SDS011;36278;47.952;21.714;2022-10-18T03:48:02;46.37;;;31.47;;
43070;SDS011;36278;47.952;21.714;2022-10-18T03:50:27;42.10;;;31.10;;
43070;SDS011;36278;47.952;21.714;2022-10-18T03:52:53;42.87;;;30.97;;
43070;SDS011;36278;47.952;21.714;2022-10-18T03:55:19;44.50;;;32.13;;
43070;SDS011;36278;47.952;21.714;2022-10-18T03:57:44;44.63;;;31.73;;
43070;SDS011;36278;47.952;21.714;2022-10-18T04:00:10;44.87;;;30.87;;
43070;SDS011;36278;47.952;21.714;2022-10-18T04:02:36;46.50;;;31.20;;
43070;SDS011;36278;47.952;21.714;2022-10-18T04:05:02;42.47;;;31.67;;
43070;SDS011;36278;47.952;21.714;2022-10-18T04:07:28;40.60;;;31.03;;
43070;SDS011;36278;47.952;21.714;2022-10-18T04:09:53;43.27;;;31.77;;
43070;SDS011;36278;47.952;21.714;2022-10-18T04:12:19;45.67;;;31.27;;
43070;SDS011;36278;47.952;21.714;2022-10-18T04:14:44;43.47;;;30.13;;
43070;SDS011;36278;47.952;21.714;2022-10-18T04:17:09;40.43;;;30.30;;
43070;SDS011;36278;47.952;21.714;2022-10-18T04:19:35;38.63;;;29.93;;
43070;SDS011;36278;47.952;21.714;2022-10-18T04:22:00;46.67;;;32.67;;
43070;SDS011;36278;47.952;21.714;2022-10-18T04:24:26;50.93;;;31.50;;
43070;SDS011;36278;47.952;21.714;2022-10-18T04:26:51;43.77;;;31.10;;
43070;SDS011;36278;47.952;21.714;2022-10-18T04:29:17;45.60;;;31.90;;
43070;SDS011;36278;47.952;21.714;2022-10-18T04:31:42;45.03;;;30.27;;
43070;SDS011;36278;47.952;21.714;2022-10-18T04:34:08;41.90;;;29.80;;
43070;SDS011;36278;47.952;21.714;2022-10-18T04:36:34;43.50;;;30.37;;
43070;SDS011;36278;47.952;21.714;2022-10-18T04:39:00;40.00;;;31.13;;
43070;SDS011;36278;47.952;21.714;2022-10-18T04:41:25;47.40;;;31.60;;
43070;SDS011;36278;47.952;21.714;2022-10-18T04:43:51;48.00;;;31.60;;
43070;SDS011;36278;47.952;21.714;2022-10-18T04:46:16;44.10;;;31.00;;
43070;SDS011;36278;47.952;21.714;2022-10-18T04:48:41;43.03;;;30.60;;
43070;SDS011;36278;47.952;21.714;2022-10-18T04:51:07;40.63;;;31.20;;
43070;SDS011;36278;47.952;21.714;2022-10-18T04:53:32;46.33;;;32.10;;
43070;SDS011;36278;47.952;21.714;2022-10-18T04:55:58;41.60;;;30.50;;
43070;SDS011;36278;47.952;21.714;2022-10-18T04:58:23;43.20;;;31.60;;
43070;SDS011;36278;47.952;21.714;2022-10-18T05:00:49;41.73;;;30.43;;
43070;SDS011;36278;47.952;21.714;2022-10-18T05:03:15;37.40;;;30.03;;
43070;SDS011;36278;47.952;21.714;2022-10-18T05:05:41;46.83;;;31.57;;
43070;SDS011;36278;47.952;21.714;2022-10-18T05:08:07;44.83;;;30.13;;
43070;SDS011;36278;47.952;21.714;2022-10-18T05:10:32;44.63;;;31.23;;
43070;SDS011;36278;47.952;21.714;2022-10-18T05:12:58;46.60;;;30.67;;
43070;SDS011;36278;47.952;21.714;2022-10-18T05:15:23;47.10;;;31.70;;
43070;SDS011;36278;47.952;21.714;2022-10-18T05:17:49;42.13;;;31.67;;
43070;SDS011;36278;47.952;21.714;2022-10-18T05:20:14;45.80;;;32.17;;
43070;SDS011;36278;47.952;21.714;2022-10-18T05:22:40;69.10;;;33.50;;
43070;SDS011;36278;47.952;21.714;2022-10-18T05:25:06;52.87;;;31.77;;
43070;SDS011;36278;47.952;21.714;2022-10-18T05:27:31;51.90;;;33.77;;
43070;SDS011;36278;47.952;21.714;2022-10-18T05:29:57;55.47;;;32.03;;
43070;SDS011;36278;47.952;21.714;2022-10-18T05:32:22;66.27;;;35.53;;
43070;SDS011;36278;47.952;21.714;2022-10-18T05:34:48;56.47;;;35.90;;
43070;SDS011;36278;47.952;21.714;2022-10-18T05:37:14;48.93;;;31.57;;
43070;SDS011;36278;47.952;21.714;2022-10-18T05:39:39;53.70;;;33.80;;
43070;SDS011;36278;47.952;21.714;2022-10-18T05:42:04;58.00;;;33.00;;
43070;SDS011;36278;47.952;21.714;2022-10-18T05:44:30;55.53;;;37.50;;
43070;SDS011;36278;47.952;21.714;2022-10-18T05:46:55;68.90;;;39.53;;
43070;SDS011;36278;47.952;21.714;2022-10-18T05:49:21;81.80;;;43.90;;
43070;SDS011;36278;47.952;21.714;2022-10-18T05:51:47;79.40;;;48.10;;
43070;SDS011;36278;47.952;21.714;2022-10-18T05:54:13;71.30;;;45.57;;
43070;SDS011;36278;47.952;21.714;2022-10-18T05:56:39;63.23;;;42.03;;
43070;SDS011;36278;47.952;21.714;2022-10-18T05:59:05;63.43;;;42.60;;
43070;SDS011;36278;47.952;21.714;2022-10-18T06:01:34;63.47;;;44.40;;
43070;SDS011;36278;47.952;21.714;2022-10-18T06:04:01;71.87;;;43.47;;
43070;SDS011;36278;47.952;21.714;2022-10-18T06:06:27;58.13;;;38.90;;
43070;SDS011;36278;47.952;21.714;2022-10-18T06:08:52;50.30;;;38.83;;
43070;SDS011;36278;47.952;21.714;2022-10-18T06:11:18;50.47;;;39.00;;
43070;SDS011;36278;47.952;21.714;2022-10-18T06:13:48;69.57;;;43.87;;
43070;SDS011;36278;47.952;21.714;2022-10-18T06:16:15;72.50;;;42.83;;
43070;SDS011;36278;47.952;21.714;2022-10-18T06:18:42;75.83;;;49.20;;
43070;SDS011;36278;47.952;21.714;2022-10-18T06:21:07;72.33;;;45.57;;
43070;SDS011;36278;47.952;21.714;2022-10-18T06:23:34;65.77;;;43.53;;
43070;SDS011;36278;47.952;21.714;2022-10-18T06:26:01;64.40;;;43.23;;
43070;SDS011;36278;47.952;21.714;2022-10-18T06:28:28;61.43;;;42.40;;
43070;SDS011;36278;47.952;21.714;2022-10-18T06:30:55;59.70;;;39.30;;
43070;SDS011;36278;47.952;21.714;2022-10-18T06:33:21;55.47;;;39.17;;
43070;SDS011;36278;47.952;21.714;2022-10-18T06:36:20;64.73;;;36.77;;
43070;SDS011;36278;47.952;21.714;2022-10-18T06:38:39;56.17;;;34.33;;
43070;SDS011;36278;47.952;21.714;2022-10-18T06:41:05;51.20;;;34.73;;
43070;SDS011;36278;47.952;21.714;2022-10-18T06:43:31;56.37;;;34.63;;
43070;SDS011;36278;47.952;21.714;2022-10-18T06:45:59;53.73;;;33.67;;
43070;SDS011;36278;47.952;21.714;2022-10-18T06:48:25;47.93;;;33.00;;
43070;SDS011;36278;47.952;21.714;2022-10-18T06:50:55;66.70;;;33.90;;
43070;SDS011;36278;47.952;21.714;2022-10-18T06:53:23;53.23;;;31.63;;
43070;SDS011;36278;47.952;21.714;2022-10-18T06:55:49;51.87;;;31.03;;
43070;SDS011;36278;47.952;21.714;2022-10-18T06:58:15;56.77;;;31.20;;
43070;SDS011;36278;47.952;21.714;2022-10-18T07:00:41;54.47;;;28.73;;
43070;SDS011;36278;47.952;21.714;2022-10-18T07:03:06;47.23;;;29.17;;
43070;SDS011;36278;47.952;21.714;2022-10-18T07:05:32;35.33;;;25.00;;
43070;SDS011;36278;47.952;21.714;2022-10-18T07:07:57;42.57;;;24.43;;
43070;SDS011;36278;47.952;21.714;2022-10-18T07:10:23;34.87;;;23.97;;
43070;SDS011;36278;47.952;21.714;2022-10-18T07:12:49;32.73;;;22.67;;
43070;SDS011;36278;47.952;21.714;2022-10-18T07:15:15;40.80;;;24.23;;
43070;SDS011;36278;47.952;21.714;2022-10-18T07:17:42;32.40;;;23.80;;
43070;SDS011;36278;47.952;21.714;2022-10-18T07:20:09;31.73;;;24.87;;
43070;SDS011;36278;47.952;21.714;2022-10-18T07:22:35;31.17;;;24.40;;
43070;SDS011;36278;47.952;21.714;2022-10-18T07:25:02;37.30;;;23.67;;
43070;SDS011;36278;47.952;21.714;2022-10-18T07:27:29;34.87;;;24.00;;
43070;SDS011;36278;47.952;21.714;2022-10-18T07:29:54;33.23;;;23.43;;
43070;SDS011;36278;47.952;21.714;2022-10-18T07:32:20;34.20;;;23.80;;
43070;SDS011;36278;47.952;21.714;2022-10-18T07:34:45;34.53;;;23.00;;
43070;SDS011;36278;47.952;21.714;2022-10-18T07:37:10;34.37;;;24.07;;
43070;SDS011;36278;47.952;21.714;2022-10-18T07:39:36;32.30;;;23.43;;
43070;SDS011;36278;47.952;21.714;2022-10-18T07:42:01;30.93;;;22.93;;
43070;SDS011;36278;47.952;21.714;2022-10-18T07:44:27;37.33;;;24.47;;
43070;SDS011;36278;47.952;21.714;2022-10-18T07:46:52;33.63;;;24.17;;
43070;SDS011;36278;47.952;21.714;2022-10-18T07:49:18;36.57;;;23.07;;
43070;SDS011;36278;47.952;21.714;2022-10-18T07:51:43;31.53;;;24.57;;
43070;SDS011;36278;47.952;21.714;2022-10-18T07:54:09;34.37;;;25.17;;
43070;SDS011;36278;47.952;21.714;2022-10-18T07:56:34;35.83;;;24.77;;
43070;SDS011;36278;47.952;21.714;2022-10-18T07:59:00;33.27;;;23.10;;
43070;SDS011;36278;47.952;21.714;2022-10-18T08:01:25;29.63;;;23.17;;
43070;SDS011;36278;47.952;21.714;2022-10-18T08:03:51;30.23;;;24.20;;
43070;SDS011;36278;47.952;21.714;2022-10-18T08:06:18;31.27;;;24.60;;
43070;SDS011;36278;47.952;21.714;2022-10-18T08:08:44;32.63;;;24.33;;
43070;SDS011;36278;47.952;21.714;2022-10-18T08:11:11;28.50;;;21.93;;
43070;SDS011;36278;47.952;21.714;2022-10-18T08:13:39;28.20;;;22.77;;
43070;SDS011;36278;47.952;21.714;2022-10-18T08:16:06;26.97;;;21.17;;
43070;SDS011;36278;47.952;21.714;2022-10-18T08:18:36;30.93;;;22.43;;
43070;SDS011;36278;47.952;21.714;2022-10-18T08:21:03;33.17;;;23.27;;
43070;SDS011;36278;47.952;21.714;2022-10-18T08:23:29;33.80;;;21.77;;
43070;SDS011;36278;47.952;21.714;2022-10-18T08:25:55;35.57;;;24.73;;
43070;SDS011;36278;47.952;21.714;2022-10-18T08:28:21;37.17;;;24.83;;
43070;SDS011;36278;47.952;21.714;2022-10-18T08:30:47;35.67;;;24.47;;
43070;SDS011;36278;47.952;21.714;2022-10-18T08:33:12;43.77;;;26.70;;
43070;SDS011;36278;47.952;21.714;2022-10-18T08:35:38;42.10;;;25.20;;
43070;SDS011;36278;47.952;21.714;2022-10-18T08:38:03;38.93;;;28.13;;
43070;SDS011;36278;47.952;21.714;2022-10-18T08:40:29;37.03;;;26.33;;
43070;SDS011;36278;47.952;21.714;2022-10-18T08:45:24;35.77;;;23.57;;
43070;SDS011;36278;47.952;21.714;2022-10-18T08:47:51;33.07;;;23.50;;
43070;SDS011;36278;47.952;21.714;2022-10-18T09:00:44;29.87;;;21.53;;
43070;SDS011;36278;47.952;21.714;2022-10-18T09:05:55;28.47;;;19.50;;
43070;SDS011;36278;47.952;21.714;2022-10-18T09:22:51;28.07;;;19.83;;
43070;SDS011;36278;47.952;21.714;2022-10-18T09:28:03;23.97;;;18.77;;
43070;SDS011;36278;47.952;21.714;2022-10-18T09:33:52;24.93;;;18.87;;
43070;SDS011;36278;47.952;21.714;2022-10-18T09:36:39;29.13;;;18.73;;
43070;SDS011;36278;47.952;21.714;2022-10-18T09:39:15;27.80;;;18.50;;
43070;SDS011;36278;47.952;21.714;2022-10-18T09:41:47;28.13;;;18.17;;
43070;SDS011;36278;47.952;21.714;2022-10-18T09:44:18;22.47;;;18.53;;
43070;SDS011;36278;47.952;21.714;2022-10-18T09:46:51;23.02;;;18.15;;
43070;SDS011;36278;47.952;21.714;2022-10-18T09:49:26;24.17;;;18.40;;
43070;SDS011;36278;47.952;21.714;2022-10-18T09:51:55;22.60;;;17.63;;
43070;SDS011;36278;47.952;21.714;2022-10-18T09:59:41;26.17;;;16.90;;
43070;SDS011;36278;47.952;21.714;2022-10-18T10:02:12;21.30;;;15.10;;
43070;SDS011;36278;47.952;21.714;2022-10-18T10:04:39;20.75;;;14.70;;
43070;SDS011;36278;47.952;21.714;2022-10-18T10:07:08;21.13;;;15.38;;
43070;SDS011;36278;47.952;21.714;2022-10-18T10:23:11;21.08;;;15.05;;
43070;SDS011;36278;47.952;21.714;2022-10-18T10:25:42;18.80;;;14.88;;
43070;SDS011;36278;47.952;21.714;2022-10-18T10:28:12;17.80;;;13.68;;
43070;SDS011;36278;47.952;21.714;2022-10-18T10:30:40;22.83;;;13.52;;
43070;SDS011;36278;47.952;21.714;2022-10-18T10:33:26;17.90;;;12.95;;
43070;SDS011;36278;47.952;21.714;2022-10-18T10:35:58;20.77;;;15.55;;
43070;SDS011;36278;47.952;21.714;2022-10-18T10:38:26;19.58;;;13.98;;
43070;SDS011;36278;47.952;21.714;2022-10-18T10:40:55;19.80;;;14.68;;
43070;SDS011;36278;47.952;21.714;2022-10-18T10:43:23;18.77;;;14.15;;
43070;SDS011;36278;47.952;21.714;2022-10-18T10:45:57;17.50;;;13.85;;
43070;SDS011;36278;47.952;21.714;2022-10-18T10:48:27;17.50;;;13.55;;
43070;SDS011;36278;47.952;21.714;2022-10-18T10:50:58;50.53;;;45.15;;
43070;SDS011;36278;47.952;21.714;2022-10-18T10:53:32;17.00;;;13.23;;
43070;SDS011;36278;47.952;21.714;2022-10-18T10:56:20;23.60;;;16.13;;
43070;SDS011;36278;47.952;21.714;2022-10-18T10:58:48;22.83;;;16.60;;
43070;SDS011;36278;47.952;21.714;2022-10-18T11:01:17;16.58;;;14.48;;
43070;SDS011;36278;47.952;21.714;2022-10-18T11:03:47;20.65;;;14.25;;
43070;SDS011;36278;47.952;21.714;2022-10-18T11:09:00;18.58;;;15.27;;
43070;SDS011;36278;47.952;21.714;2022-10-18T11:11:30;18.83;;;12.77;;
43070;SDS011;36278;47.952;21.714;2022-10-18T11:14:04;17.90;;;14.02;;
43070;SDS011;36278;47.952;21.714;2022-10-18T11:16:41;24.80;;;13.80;;
43070;SDS011;36278;47.952;21.714;2022-10-18T11:22:27;18.73;;;13.88;;
43070;SDS011;36278;47.952;21.714;2022-10-18T11:25:00;21.63;;;14.10;;
43070;SDS011;36278;47.952;21.714;2022-10-18T11:27:28;16.83;;;12.68;;
43070;SDS011;36278;47.952;21.714;2022-10-18T11:35:50;18.17;;;13.02;;
43070;SDS011;36278;47.952;21.714;2022-10-18T11:38:26;16.48;;;13.38;;
43070;SDS011;36278;47.952;21.714;2022-10-18T11:43:36;17.58;;;12.88;;
43070;SDS011;36278;47.952;21.714;2022-10-18T11:46:23;21.58;;;13.43;;
43070;SDS011;36278;47.952;21.714;2022-10-18T12:00:06;18.63;;;12.43;;
43070;SDS011;36278;47.952;21.714;2022-10-18T12:05:20;18.38;;;12.57;;
43070;SDS011;36278;47.952;21.714;2022-10-18T12:10:37;13.82;;;11.30;;
43070;SDS011;36278;47.952;21.714;2022-10-18T12:13:06;12.90;;;11.00;;
43070;SDS011;36278;47.952;21.714;2022-10-18T12:15:40;16.25;;;10.85;;
43070;SDS011;36278;47.952;21.714;2022-10-18T12:18:10;14.90;;;11.13;;
43070;SDS011;36278;47.952;21.714;2022-10-18T12:20:48;15.50;;;11.25;;
43070;SDS011;36278;47.952;21.714;2022-10-18T12:25:59;16.13;;;10.95;;
43070;SDS011;36278;47.952;21.714;2022-10-18T12:31:24;15.73;;;11.45;;
43070;SDS011;36278;47.952;21.714;2022-10-18T12:39:18;14.07;;;10.00;;
43070;SDS011;36278;47.952;21.714;2022-10-18T12:41:51;11.18;;;9.57;;
43070;SDS011;36278;47.952;21.714;2022-10-18T12:44:21;15.95;;;8.68;;
43070;SDS011;36278;47.952;21.714;2022-10-18T12:46:54;13.88;;;8.80;;
43070;SDS011;36278;47.952;21.714;2022-10-18T12:49:32;16.98;;;8.95;;
43070;SDS011;36278;47.952;21.714;2022-10-18T12:52:00;11.60;;;10.15;;
43070;SDS011;36278;47.952;21.714;2022-10-18T12:54:33;17.15;;;10.60;;
43070;SDS011;36278;47.952;21.714;2022-10-18T12:57:02;20.65;;;10.68;;
43070;SDS011;36278;47.952;21.714;2022-10-18T13:09:25;14.95;;;13.07;;
43070;SDS011;36278;47.952;21.714;2022-10-18T13:17:28;14.40;;;9.27;;
43070;SDS011;36278;47.952;21.714;2022-10-18T13:25:31;10.23;;;7.63;;
43070;SDS011;36278;47.952;21.714;2022-10-18T13:28:45;9.07;;;6.82;;
43070;SDS011;36278;47.952;21.714;2022-10-18T13:33:36;10.90;;;7.45;;
43070;SDS011;36278;47.952;21.714;2022-10-18T13:38:46;11.32;;;7.75;;
43070;SDS011;36278;47.952;21.714;2022-10-18T13:46:18;11.40;;;7.57;;
43070;SDS011;36278;47.952;21.714;2022-10-18T13:48:45;21.38;;;8.35;;
43070;SDS011;36278;47.952;21.714;2022-10-18T14:04:43;12.57;;;7.90;;
43070;SDS011;36278;47.952;21.714;2022-10-18T14:07:21;12.85;;;7.80;;
43070;SDS011;36278;47.952;21.714;2022-10-18T14:09:51;15.25;;;7.85;;
43070;SDS011;36278;47.952;21.714;2022-10-18T14:15:15;9.25;;;7.57;;
43070;SDS011;36278;47.952;21.714;2022-10-18T14:20:43;9.07;;;6.97;;
43070;SDS011;36278;47.952;21.714;2022-10-18T14:25:45;16.98;;;8.02;;
43070;SDS011;36278;47.952;21.714;2022-10-18T14:30:57;17.48;;;7.88;;
43070;SDS011;36278;47.952;21.714;2022-10-18T14:36:08;12.57;;;8.20;;
43070;SDS011;36278;47.952;21.714;2022-10-18T14:38:43;14.10;;;8.68;;
43070;SDS011;36278;47.952;21.714;2022-10-18T14:46:50;11.63;;;7.72;;
43070;SDS011;36278;47.952;21.714;2022-10-18T14:49:26;10.68;;;7.72;;
43070;SDS011;36278;47.952;21.714;2022-10-18T14:51:52;16.17;;;7.93;;
43070;SDS011;36278;47.952;21.714;2022-10-18T14:56:57;13.95;;;9.23;;
43070;SDS011;36278;47.952;21.714;2022-10-18T14:59:27;10.10;;;8.05;;
43070;SDS011;36278;47.952;21.714;2022-10-18T15:02:13;20.10;;;7.78;;
43070;SDS011;36278;47.952;21.714;2022-10-18T15:04:44;16.15;;;8.05;;
43070;SDS011;36278;47.952;21.714;2022-10-18T15:07:14;13.88;;;8.50;;
43070;SDS011;36278;47.952;21.714;2022-10-18T15:09:41;20.25;;;8.00;;
43070;SDS011;36278;47.952;21.714;2022-10-18T15:12:09;17.75;;;9.20;;
43070;SDS011;36278;47.952;21.714;2022-10-18T15:14:37;11.38;;;7.88;;
43070;SDS011;36278;47.952;21.714;2022-10-18T15:17:11;15.40;;;7.82;;
43070;SDS011;36278;47.952;21.714;2022-10-18T15:19:51;13.52;;;7.60;;
43070;SDS011;36278;47.952;21.714;2022-10-18T15:22:25;9.55;;;7.75;;
43070;SDS011;36278;47.952;21.714;2022-10-18T15:27:42;17.13;;;8.43;;
43070;SDS011;36278;47.952;21.714;2022-10-18T15:30:19;14.23;;;8.00;;
43070;SDS011;36278;47.952;21.714;2022-10-18T15:32:50;21.35;;;10.25;;
43070;SDS011;36278;47.952;21.714;2022-10-18T15:35:26;14.88;;;8.93;;
43070;SDS011;36278;47.952;21.714;2022-10-18T15:37:57;13.15;;;8.82;;
43070;SDS011;36278;47.952;21.714;2022-10-18T15:40:29;54.33;;;32.30;;
43070;SDS011;36278;47.952;21.714;2022-10-18T15:42:58;16.13;;;9.63;;
43070;SDS011;36278;47.952;21.714;2022-10-18T15:45:30;24.47;;;12.53;;
43070;SDS011;36278;47.952;21.714;2022-10-18T15:50:40;18.30;;;11.37;;
43070;SDS011;36278;47.952;21.714;2022-10-18T15:58:40;15.80;;;10.30;;
43070;SDS011;36278;47.952;21.714;2022-10-18T16:03:45;16.27;;;11.70;;
43070;SDS011;36278;47.952;21.714;2022-10-18T16:06:13;20.57;;;10.47;;
43070;SDS011;36278;47.952;21.714;2022-10-18T16:08:41;19.70;;;11.27;;
43070;SDS011;36278;47.952;21.714;2022-10-18T16:11:24;14.87;;;10.13;;
43070;SDS011;36278;47.952;21.714;2022-10-18T16:13:50;20.93;;;11.63;;
43070;SDS011;36278;47.952;21.714;2022-10-18T16:16:20;21.47;;;11.50;;
43070;SDS011;36278;47.952;21.714;2022-10-18T16:18:48;14.60;;;11.03;;
43070;SDS011;36278;47.952;21.714;2022-10-18T16:21:15;16.57;;;9.53;;
43070;SDS011;36278;47.952;21.714;2022-10-18T16:23:49;12.20;;;8.97;;
43070;SDS011;36278;47.952;21.714;2022-10-18T16:26:15;17.23;;;10.00;;
43070;SDS011;36278;47.952;21.714;2022-10-18T16:28:41;16.50;;;9.77;;
43070;SDS011;36278;47.952;21.714;2022-10-18T16:31:08;16.53;;;9.87;;
43070;SDS011;36278;47.952;21.714;2022-10-18T16:33:38;17.37;;;9.80;;
43070;SDS011;36278;47.952;21.714;2022-10-18T16:36:03;18.40;;;8.83;;
43070;SDS011;36278;47.952;21.714;2022-10-18T16:38:30;15.13;;;9.70;;
43070;SDS011;36278;47.952;21.714;2022-10-18T16:40:58;17.57;;;9.80;;
43070;SDS011;36278;47.952;21.714;2022-10-18T16:43:24;14.40;;;10.23;;
43070;SDS011;36278;47.952;21.714;2022-10-18T16:45:50;18.87;;;10.30;;
43070;SDS011;36278;47.952;21.714;2022-10-18T16:48:19;22.60;;;10.60;;
43070;SDS011;36278;47.952;21.714;2022-10-18T16:50:46;16.27;;;10.87;;
43070;SDS011;36278;47.952;21.714;2022-10-18T16:53:13;17.53;;;10.30;;
43070;SDS011;36278;47.952;21.714;2022-10-18T16:55:39;20.90;;;13.37;;
43070;SDS011;36278;47.952;21.714;2022-10-18T16:58:06;21.07;;;13.50;;
43070;SDS011;36278;47.952;21.714;2022-10-18T17:00:35;21.43;;;14.37;;
43070;SDS011;36278;47.952;21.714;2022-10-18T17:03:01;23.67;;;15.63;;
43070;SDS011;36278;47.952;21.714;2022-10-18T17:05:26;22.93;;;16.63;;
43070;SDS011;36278;47.952;21.714;2022-10-18T17:07:52;27.20;;;18.57;;
43070;SDS011;36278;47.952;21.714;2022-10-18T17:10:18;36.73;;;18.07;;
43070;SDS011;36278;47.952;21.714;2022-10-18T17:12:45;38.57;;;20.30;;
43070;SDS011;36278;47.952;21.714;2022-10-18T17:15:11;27.70;;;18.37;;
43070;SDS011;36278;47.952;21.714;2022-10-18T17:17:37;29.30;;;18.73;;
43070;SDS011;36278;47.952;21.714;2022-10-18T17:20:04;35.63;;;19.27;;
43070;SDS011;36278;47.952;21.714;2022-10-18T17:22:30;26.20;;;17.43;;
43070;SDS011;36278;47.952;21.714;2022-10-18T17:24:56;25.03;;;18.10;;
43070;SDS011;36278;47.952;21.714;2022-10-18T17:27:21;27.23;;;18.17;;
43070;SDS011;36278;47.952;21.714;2022-10-18T17:29:47;32.60;;;18.37;;
43070;SDS011;36278;47.952;21.714;2022-10-18T17:32:12;23.97;;;17.50;;
43070;SDS011;36278;47.952;21.714;2022-10-18T17:34:38;24.43;;;16.47;;
43070;SDS011;36278;47.952;21.714;2022-10-18T17:37:04;24.50;;;16.87;;
43070;SDS011;36278;47.952;21.714;2022-10-18T17:39:31;23.27;;;16.27;;
43070;SDS011;36278;47.952;21.714;2022-10-18T17:41:56;24.50;;;16.27;;
43070;SDS011;36278;47.952;21.714;2022-10-18T17:44:22;24.60;;;16.53;;
43070;SDS011;36278;47.952;21.714;2022-10-18T17:46:48;20.67;;;15.13;;